sensor_id;sensor_type;location;lat;lon;timestamp;P1;P2;P0
49644;PMS5003;36494;50.730;-1.932;2022-12-13T00:02:08;65;62;
49644;PMS5003;36494;50.730;-1.932;2022-12-13T00:04:33;63;58;
49644;PMS5003;36494;50.730;-1.932;2022-12-13T00:06:59;67;62;
49644;PMS5003;36494;50.730;-1.932;2022-12-13T00:09:24;69;63;
49644;PMS5003;36494;50.730;-1.932;2022-12-13T00:11:50;70;65;
49644;PMS5003;36494;50.730;-1.932;2022-12-13T00:14:15;72;68;
49644;PMS5003;36494;50.730;-1.932;2022-12-13T00:16:42;69;63;
49644;PMS5003;36494;50.730;-1.932;2022-12-13T00:19:06;70;69;
49644;PMS5003;36494;50.730;-1.932;2022-12-13T00:21:32;69;67;
49644;PMS5003;36494;50.730;-1.932;2022-12-13T00:23:57;72;70;
49644;PMS5003;36494;50.730;-1.932;2022-12-13T00:26:23;74;69;
49644;PMS5003;36494;50.730;-1.932;2022-12-13T00:28:48;77;69;
49644;PMS5003;36494;50.730;-1.932;2022-12-13T00:31:13;66;59;
49644;PMS5003;36494;50.730;-1.932;2022-12-13T00:33:39;65;60;
49644;PMS5003;36494;50.730;-1.932;2022-12-13T00:36:04;64;63;
49644;PMS5003;36494;50.730;-1.932;2022-12-13T00:38:29;64;60;
49644;PMS5003;36494;50.730;-1.932;2022-12-13T00:40:54;64;59;
49644;PMS5003;36494;50.730;-1.932;2022-12-13T00:43:20;54;50;
49644;PMS5003;36494;50.730;-1.932;2022-12-13T00:45:45;60;57;
49644;PMS5003;36494;50.730;-1.932;2022-12-13T00:48:11;65;59;
49644;PMS5003;36494;50.730;-1.932;2022-12-13T00:50:36;61;58;
49644;PMS5003;36494;50.730;-1.932;2022-12-13T00:53:02;63;59;
49644;PMS5003;36494;50.730;-1.932;2022-12-13T00:55:27;57;56;
49644;PMS5003;36494;50.730;-1.932;2022-12-13T00:57:52;58;55;
49644;PMS5003;36494;50.730;-1.932;2022-12-13T01:00:18;69;60;
49644;PMS5003;36494;50.730;-1.932;2022-12-13T01:02:44;65;58;
49644;PMS5003;36494;50.730;-1.932;2022-12-13T01:05:09;57;55;
49644;PMS5003;36494;50.730;-1.932;2022-12-13T01:07:34;57;52;
49644;PMS5003;36494;50.730;-1.932;2022-12-13T01:09:59;64;61;
49644;PMS5003;36494;50.730;-1.932;2022-12-13T01:12:25;62;56;
49644;PMS5003;36494;50.730;-1.932;2022-12-13T01:14:51;61;56;
49644;PMS5003;36494;50.730;-1.932;2022-12-13T01:17:16;64;59;
49644;PMS5003;36494;50.730;-1.932;2022-12-13T01:19:42;56;52;
49644;PMS5003;36494;50.730;-1.932;2022-12-13T01:22:07;52;49;
49644;PMS5003;36494;50.730;-1.932;2022-12-13T01:24:33;53;52;
49644;PMS5003;36494;50.730;-1.932;2022-12-13T01:26:58;59;53;
49644;PMS5003;36494;50.730;-1.932;2022-12-13T01:29:24;51;49;
49644;PMS5003;36494;50.730;-1.932;2022-12-13T01:31:49;56;53;
49644;PMS5003;36494;50.730;-1.932;2022-12-13T01:34:15;56;53;
49644;PMS5003;36494;50.730;-1.932;2022-12-13T01:36:41;53;47;
49644;PMS5003;36494;50.730;-1.932;2022-12-13T01:39:05;53;51;
49644;PMS5003;36494;50.730;-1.932;2022-12-13T01:41:32;58;52;
49644;PMS5003;36494;50.730;-1.932;2022-12-13T01:43:57;52;50;
49644;PMS5003;36494;50.730;-1.932;2022-12-13T01:46:22;47;46;
49644;PMS5003;36494;50.730;-1.932;2022-12-13T01:48:49;52;47;
49644;PMS5003;36494;50.730;-1.932;2022-12-13T01:51:14;54;44;
49644;PMS5003;36494;50.730;-1.932;2022-12-13T01:53:39;50;47;
49644;PMS5003;36494;50.730;-1.932;2022-12-13T01:56:05;54;50;
49644;PMS5003;36494;50.730;-1.932;2022-12-13T01:58:29;50;48;
49644;PMS5003;36494;50.730;-1.932;2022-12-13T02:00:56;61;56;
49644;PMS5003;36494;50.730;-1.932;2022-12-13T02:03:21;55;49;
49644;PMS5003;36494;50.730;-1.932;2022-12-13T02:05:49;55;49;
49644;PMS5003;36494;50.730;-1.932;2022-12-13T02:08:12;58;52;
49644;PMS5003;36494;50.730;-1.932;2022-12-13T02:10:37;53;50;
49644;PMS5003;36494;50.730;-1.932;2022-12-13T02:13:02;51;45;
49644;PMS5003;36494;50.730;-1.932;2022-12-13T02:15:30;47;44;
49644;PMS5003;36494;50.730;-1.932;2022-12-13T02:18:01;62;55;
49644;PMS5003;36494;50.730;-1.932;2022-12-13T02:20:28;50;47;
49644;PMS5003;36494;50.730;-1.932;2022-12-13T02:22:48;56;46;
49644;PMS5003;36494;50.730;-1.932;2022-12-13T02:25:16;48;44;
49644;PMS5003;36494;50.730;-1.932;2022-12-13T02:27:39;50;46;
49644;PMS5003;36494;50.730;-1.932;2022-12-13T02:32:29;53;50;
49644;PMS5003;36494;50.730;-1.932;2022-12-13T02:34:53;50;46;
49644;PMS5003;36494;50.730;-1.932;2022-12-13T02:37:19;46;45;
49644;PMS5003;36494;50.730;-1.932;2022-12-13T02:39:46;51;49;
49644;PMS5003;36494;50.730;-1.932;2022-12-13T02:42:10;44;42;
49644;PMS5003;36494;50.730;-1.932;2022-12-13T02:44:35;45;42;
49644;PMS5003;36494;50.730;-1.932;2022-12-13T02:47:00;47;43;
49644;PMS5003;36494;50.730;-1.932;2022-12-13T02:49:26;58;54;
49644;PMS5003;36494;50.730;-1.932;2022-12-13T02:51:50;55;49;
49644;PMS5003;36494;50.730;-1.932;2022-12-13T02:54:16;45;42;
49644;PMS5003;36494;50.730;-1.932;2022-12-13T02:59:08;48;45;
49644;PMS5003;36494;50.730;-1.932;2022-12-13T03:01:38;45;41;
49644;PMS5003;36494;50.730;-1.932;2022-12-13T03:04:01;51;47;
49644;PMS5003;36494;50.730;-1.932;2022-12-13T03:06:25;50;44;
49644;PMS5003;36494;50.730;-1.932;2022-12-13T03:08:51;45;43;
49644;PMS5003;36494;50.730;-1.932;2022-12-13T03:11:15;45;42;
49644;PMS5003;36494;50.730;-1.932;2022-12-13T03:13:42;49;48;
49644;PMS5003;36494;50.730;-1.932;2022-12-13T03:16:08;49;44;
49644;PMS5003;36494;50.730;-1.932;2022-12-13T03:18:31;52;49;
49644;PMS5003;36494;50.730;-1.932;2022-12-13T03:20:57;47;43;
49644;PMS5003;36494;50.730;-1.932;2022-12-13T03:23:22;42;40;
49644;PMS5003;36494;50.730;-1.932;2022-12-13T03:25:49;50;47;
49644;PMS5003;36494;50.730;-1.932;2022-12-13T03:28:14;39;38;
49644;PMS5003;36494;50.730;-1.932;2022-12-13T03:30:39;46;43;
49644;PMS5003;36494;50.730;-1.932;2022-12-13T03:33:04;40;39;
49644;PMS5003;36494;50.730;-1.932;2022-12-13T03:35:30;47;42;
49644;PMS5003;36494;50.730;-1.932;2022-12-13T03:37:55;47;44;
49644;PMS5003;36494;50.730;-1.932;2022-12-13T03:40:21;39;38;
49644;PMS5003;36494;50.730;-1.932;2022-12-13T03:42:47;42;42;
49644;PMS5003;36494;50.730;-1.932;2022-12-13T03:45:13;48;45;
49644;PMS5003;36494;50.730;-1.932;2022-12-13T03:47:37;48;41;
49644;PMS5003;36494;50.730;-1.932;2022-12-13T03:50:03;37;35;
49644;PMS5003;36494;50.730;-1.932;2022-12-13T03:52:28;49;43;
49644;PMS5003;36494;50.730;-1.932;2022-12-13T03:54:54;47;41;
49644;PMS5003;36494;50.730;-1.932;2022-12-13T03:57:19;50;46;
49644;PMS5003;36494;50.730;-1.932;2022-12-13T03:59:45;44;41;
49644;PMS5003;36494;50.730;-1.932;2022-12-13T04:02:10;45;41;
49644;PMS5003;36494;50.730;-1.932;2022-12-13T04:04:36;36;36;
49644;PMS5003;36494;50.730;-1.932;2022-12-13T04:07:01;41;39;
49644;PMS5003;36494;50.730;-1.932;2022-12-13T04:09:27;52;44;
49644;PMS5003;36494;50.730;-1.932;2022-12-13T04:11:52;44;39;
49644;PMS5003;36494;50.730;-1.932;2022-12-13T04:14:18;48;44;
49644;PMS5003;36494;50.730;-1.932;2022-12-13T04:16:43;43;40;
49644;PMS5003;36494;50.730;-1.932;2022-12-13T04:19:09;44;42;
49644;PMS5003;36494;50.730;-1.932;2022-12-13T04:21:35;48;41;
49644;PMS5003;36494;50.730;-1.932;2022-12-13T04:24:00;45;42;
49644;PMS5003;36494;50.730;-1.932;2022-12-13T04:26:25;45;42;
49644;PMS5003;36494;50.730;-1.932;2022-12-13T04:28:50;53;48;
49644;PMS5003;36494;50.730;-1.932;2022-12-13T04:31:16;45;41;
49644;PMS5003;36494;50.730;-1.932;2022-12-13T04:33:41;48;46;
49644;PMS5003;36494;50.730;-1.932;2022-12-13T04:36:07;51;49;
49644;PMS5003;36494;50.730;-1.932;2022-12-13T04:38:33;48;43;
49644;PMS5003;36494;50.730;-1.932;2022-12-13T04:41:04;47;44;
49644;PMS5003;36494;50.730;-1.932;2022-12-13T04:43:23;42;40;
49644;PMS5003;36494;50.730;-1.932;2022-12-13T04:45:49;39;36;
49644;PMS5003;36494;50.730;-1.932;2022-12-13T04:48:14;44;41;
49644;PMS5003;36494;50.730;-1.932;2022-12-13T04:50:39;45;41;
49644;PMS5003;36494;50.730;-1.932;2022-12-13T04:53:05;42;42;
49644;PMS5003;36494;50.730;-1.932;2022-12-13T04:55:31;41;41;
49644;PMS5003;36494;50.730;-1.932;2022-12-13T04:57:56;45;43;
49644;PMS5003;36494;50.730;-1.932;2022-12-13T05:00:21;41;40;
49644;PMS5003;36494;50.730;-1.932;2022-12-13T05:02:47;43;43;
49644;PMS5003;36494;50.730;-1.932;2022-12-13T05:05:12;40;38;
49644;PMS5003;36494;50.730;-1.932;2022-12-13T05:07:37;43;42;
49644;PMS5003;36494;50.730;-1.932;2022-12-13T05:10:03;39;39;
49644;PMS5003;36494;50.730;-1.932;2022-12-13T05:12:27;44;41;
49644;PMS5003;36494;50.730;-1.932;2022-12-13T05:14:53;40;39;
49644;PMS5003;36494;50.730;-1.932;2022-12-13T05:17:19;49;45;
49644;PMS5003;36494;50.730;-1.932;2022-12-13T05:19:44;42;38;
49644;PMS5003;36494;50.730;-1.932;2022-12-13T05:22:09;48;45;
49644;PMS5003;36494;50.730;-1.932;2022-12-13T05:24:34;42;41;
49644;PMS5003;36494;50.730;-1.932;2022-12-13T05:27:00;45;42;
49644;PMS5003;36494;50.730;-1.932;2022-12-13T05:29:25;44;41;
49644;PMS5003;36494;50.730;-1.932;2022-12-13T05:31:51;45;43;
49644;PMS5003;36494;50.730;-1.932;2022-12-13T05:34:17;42;39;
49644;PMS5003;36494;50.730;-1.932;2022-12-13T05:36:42;47;43;
49644;PMS5003;36494;50.730;-1.932;2022-12-13T05:39:08;48;45;
49644;PMS5003;36494;50.730;-1.932;2022-12-13T05:41:34;42;40;
49644;PMS5003;36494;50.730;-1.932;2022-12-13T05:43:58;47;41;
49644;PMS5003;36494;50.730;-1.932;2022-12-13T05:46:24;42;40;
49644;PMS5003;36494;50.730;-1.932;2022-12-13T05:48:48;45;42;
49644;PMS5003;36494;50.730;-1.932;2022-12-13T05:51:14;38;37;
49644;PMS5003;36494;50.730;-1.932;2022-12-13T05:53:40;43;41;
49644;PMS5003;36494;50.730;-1.932;2022-12-13T05:56:06;51;46;
49644;PMS5003;36494;50.730;-1.932;2022-12-13T05:58:31;42;36;
49644;PMS5003;36494;50.730;-1.932;2022-12-13T06:03:22;41;39;
49644;PMS5003;36494;50.730;-1.932;2022-12-13T06:05:47;37;36;
49644;PMS5003;36494;50.730;-1.932;2022-12-13T06:08:12;38;36;
49644;PMS5003;36494;50.730;-1.932;2022-12-13T06:10:37;42;41;
49644;PMS5003;36494;50.730;-1.932;2022-12-13T06:13:02;37;35;
49644;PMS5003;36494;50.730;-1.932;2022-12-13T06:15:28;40;38;
49644;PMS5003;36494;50.730;-1.932;2022-12-13T06:17:53;41;40;
49644;PMS5003;36494;50.730;-1.932;2022-12-13T06:20:19;41;40;
49644;PMS5003;36494;50.730;-1.932;2022-12-13T06:22:44;45;37;
49644;PMS5003;36494;50.730;-1.932;2022-12-13T06:25:09;32;31;
49644;PMS5003;36494;50.730;-1.932;2022-12-13T06:27:35;42;40;
49644;PMS5003;36494;50.730;-1.932;2022-12-13T06:30:00;45;39;
49644;PMS5003;36494;50.730;-1.932;2022-12-13T06:32:26;36;35;
49644;PMS5003;36494;50.730;-1.932;2022-12-13T06:34:52;37;33;
49644;PMS5003;36494;50.730;-1.932;2022-12-13T06:37:18;49;44;
49644;PMS5003;36494;50.730;-1.932;2022-12-13T06:39:43;40;36;
49644;PMS5003;36494;50.730;-1.932;2022-12-13T06:42:12;36;35;
49644;PMS5003;36494;50.730;-1.932;2022-12-13T06:44:34;38;37;
49644;PMS5003;36494;50.730;-1.932;2022-12-13T06:46:59;44;39;
49644;PMS5003;36494;50.730;-1.932;2022-12-13T06:49:25;36;35;
49644;PMS5003;36494;50.730;-1.932;2022-12-13T06:51:50;40;39;
49644;PMS5003;36494;50.730;-1.932;2022-12-13T06:54:15;45;44;
49644;PMS5003;36494;50.730;-1.932;2022-12-13T06:56:41;37;35;
49644;PMS5003;36494;50.730;-1.932;2022-12-13T06:59:06;37;34;
49644;PMS5003;36494;50.730;-1.932;2022-12-13T07:01:31;34;31;
49644;PMS5003;36494;50.730;-1.932;2022-12-13T07:03:57;42;40;
49644;PMS5003;36494;50.730;-1.932;2022-12-13T07:06:22;42;42;
49644;PMS5003;36494;50.730;-1.932;2022-12-13T07:08:48;36;34;
49644;PMS5003;36494;50.730;-1.932;2022-12-13T07:11:13;42;38;
49644;PMS5003;36494;50.730;-1.932;2022-12-13T07:13:38;46;40;
49644;PMS5003;36494;50.730;-1.932;2022-12-13T07:16:04;45;43;
49644;PMS5003;36494;50.730;-1.932;2022-12-13T07:18:29;38;36;
49644;PMS5003;36494;50.730;-1.932;2022-12-13T07:20:54;39;36;
49644;PMS5003;36494;50.730;-1.932;2022-12-13T07:23:20;41;38;
49644;PMS5003;36494;50.730;-1.932;2022-12-13T07:25:50;36;35;
49644;PMS5003;36494;50.730;-1.932;2022-12-13T07:28:11;41;39;
49644;PMS5003;36494;50.730;-1.932;2022-12-13T07:30:37;40;37;
49644;PMS5003;36494;50.730;-1.932;2022-12-13T07:33:01;43;39;
49644;PMS5003;36494;50.730;-1.932;2022-12-13T07:35:26;43;41;
49644;PMS5003;36494;50.730;-1.932;2022-12-13T07:37:52;38;37;
49644;PMS5003;36494;50.730;-1.932;2022-12-13T07:40:18;36;36;
49644;PMS5003;36494;50.730;-1.932;2022-12-13T07:42:47;42;36;
49644;PMS5003;36494;50.730;-1.932;2022-12-13T07:45:09;37;35;
49644;PMS5003;36494;50.730;-1.932;2022-12-13T07:47:34;38;36;
49644;PMS5003;36494;50.730;-1.932;2022-12-13T07:49:59;37;36;
49644;PMS5003;36494;50.730;-1.932;2022-12-13T07:52:24;38;35;
49644;PMS5003;36494;50.730;-1.932;2022-12-13T07:54:50;36;33;
49644;PMS5003;36494;50.730;-1.932;2022-12-13T07:57:15;32;28;
49644;PMS5003;36494;50.730;-1.932;2022-12-13T07:59:40;41;40;
49644;PMS5003;36494;50.730;-1.932;2022-12-13T08:02:07;42;36;
49644;PMS5003;36494;50.730;-1.932;2022-12-13T08:04:31;40;35;
49644;PMS5003;36494;50.730;-1.932;2022-12-13T08:06:56;37;32;
49644;PMS5003;36494;50.730;-1.932;2022-12-13T08:09:22;36;33;
49644;PMS5003;36494;50.730;-1.932;2022-12-13T08:11:47;38;35;
49644;PMS5003;36494;50.730;-1.932;2022-12-13T08:14:12;36;29;
49644;PMS5003;36494;50.730;-1.932;2022-12-13T08:16:38;38;35;
49644;PMS5003;36494;50.730;-1.932;2022-12-13T08:19:03;36;32;
49644;PMS5003;36494;50.730;-1.932;2022-12-13T08:21:32;38;33;
49644;PMS5003;36494;50.730;-1.932;2022-12-13T08:23:54;38;33;
49644;PMS5003;36494;50.730;-1.932;2022-12-13T08:26:19;41;36;
49644;PMS5003;36494;50.730;-1.932;2022-12-13T08:28:45;43;41;
49644;PMS5003;36494;50.730;-1.932;2022-12-13T08:31:10;50;45;
49644;PMS5003;36494;50.730;-1.932;2022-12-13T08:33:36;50;48;
49644;PMS5003;36494;50.730;-1.932;2022-12-13T08:36:07;50;46;
49644;PMS5003;36494;50.730;-1.932;2022-12-13T08:38:28;47;45;
49644;PMS5003;36494;50.730;-1.932;2022-12-13T08:40:53;46;42;
49644;PMS5003;36494;50.730;-1.932;2022-12-13T08:43:19;38;33;
49644;PMS5003;36494;50.730;-1.932;2022-12-13T08:45:44;31;29;
49644;PMS5003;36494;50.730;-1.932;2022-12-13T08:48:10;32;32;
49644;PMS5003;36494;50.730;-1.932;2022-12-13T08:50:35;42;40;
49644;PMS5003;36494;50.730;-1.932;2022-12-13T08:53:00;40;38;
49644;PMS5003;36494;50.730;-1.932;2022-12-13T08:55:26;32;31;
49644;PMS5003;36494;50.730;-1.932;2022-12-13T08:57:51;36;33;
49644;PMS5003;36494;50.730;-1.932;2022-12-13T09:00:17;34;33;
49644;PMS5003;36494;50.730;-1.932;2022-12-13T09:02:41;36;34;
49644;PMS5003;36494;50.730;-1.932;2022-12-13T09:05:08;35;34;
49644;PMS5003;36494;50.730;-1.932;2022-12-13T09:07:32;34;33;
49644;PMS5003;36494;50.730;-1.932;2022-12-13T09:09:57;39;36;
49644;PMS5003;36494;50.730;-1.932;2022-12-13T09:12:23;36;34;
49644;PMS5003;36494;50.730;-1.932;2022-12-13T09:14:48;42;39;
49644;PMS5003;36494;50.730;-1.932;2022-12-13T09:17:13;31;30;
49644;PMS5003;36494;50.730;-1.932;2022-12-13T09:19:38;39;36;
49644;PMS5003;36494;50.730;-1.932;2022-12-13T09:22:04;35;33;
49644;PMS5003;36494;50.730;-1.932;2022-12-13T09:24:29;37;35;
49644;PMS5003;36494;50.730;-1.932;2022-12-13T09:26:55;37;34;
49644;PMS5003;36494;50.730;-1.932;2022-12-13T09:29:20;34;33;
49644;PMS5003;36494;50.730;-1.932;2022-12-13T09:31:46;37;35;
49644;PMS5003;36494;50.730;-1.932;2022-12-13T09:34:11;32;30;
49644;PMS5003;36494;50.730;-1.932;2022-12-13T09:36:36;34;31;
49644;PMS5003;36494;50.730;-1.932;2022-12-13T09:39:02;40;38;
49644;PMS5003;36494;50.730;-1.932;2022-12-13T09:41:28;40;38;
49644;PMS5003;36494;50.730;-1.932;2022-12-13T09:43:53;36;33;
49644;PMS5003;36494;50.730;-1.932;2022-12-13T09:46:21;36;32;
49644;PMS5003;36494;50.730;-1.932;2022-12-13T09:48:43;34;32;
49644;PMS5003;36494;50.730;-1.932;2022-12-13T09:51:09;38;36;
49644;PMS5003;36494;50.730;-1.932;2022-12-13T09:53:34;32;30;
49644;PMS5003;36494;50.730;-1.932;2022-12-13T09:55:59;37;35;
49644;PMS5003;36494;50.730;-1.932;2022-12-13T09:58:25;38;35;
49644;PMS5003;36494;50.730;-1.932;2022-12-13T10:00:50;37;34;
49644;PMS5003;36494;50.730;-1.932;2022-12-13T10:03:15;38;35;
49644;PMS5003;36494;50.730;-1.932;2022-12-13T10:05:43;36;34;
49644;PMS5003;36494;50.730;-1.932;2022-12-13T10:08:06;36;35;
49644;PMS5003;36494;50.730;-1.932;2022-12-13T10:10:31;42;37;
49644;PMS5003;36494;50.730;-1.932;2022-12-13T10:12:57;37;35;
49644;PMS5003;36494;50.730;-1.932;2022-12-13T10:15:22;39;36;
49644;PMS5003;36494;50.730;-1.932;2022-12-13T10:17:47;38;33;
49644;PMS5003;36494;50.730;-1.932;2022-12-13T10:20:15;33;31;
49644;PMS5003;36494;50.730;-1.932;2022-12-13T10:22:38;33;30;
49644;PMS5003;36494;50.730;-1.932;2022-12-13T10:25:03;32;29;
49644;PMS5003;36494;50.730;-1.932;2022-12-13T10:27:31;33;32;
49644;PMS5003;36494;50.730;-1.932;2022-12-13T10:30:00;33;31;
49644;PMS5003;36494;50.730;-1.932;2022-12-13T10:32:20;34;32;
49644;PMS5003;36494;50.730;-1.932;2022-12-13T10:34:46;36;35;
49644;PMS5003;36494;50.730;-1.932;2022-12-13T10:39:38;34;31;
49644;PMS5003;36494;50.730;-1.932;2022-12-13T10:42:03;34;31;
49644;PMS5003;36494;50.730;-1.932;2022-12-13T10:44:28;28;28;
49644;PMS5003;36494;50.730;-1.932;2022-12-13T10:47:01;33;31;
49644;PMS5003;36494;50.730;-1.932;2022-12-13T10:49:20;28;27;
49644;PMS5003;36494;50.730;-1.932;2022-12-13T10:51:45;35;30;
49644;PMS5003;36494;50.730;-1.932;2022-12-13T10:54:13;36;35;
49644;PMS5003;36494;50.730;-1.932;2022-12-13T10:56:37;34;33;
49644;PMS5003;36494;50.730;-1.932;2022-12-13T11:01:27;43;39;
49644;PMS5003;36494;50.730;-1.932;2022-12-13T11:03:56;38;35;
49644;PMS5003;36494;50.730;-1.932;2022-12-13T11:06:18;34;34;
49644;PMS5003;36494;50.730;-1.932;2022-12-13T11:08:43;38;34;
49644;PMS5003;36494;50.730;-1.932;2022-12-13T11:11:09;29;28;
49644;PMS5003;36494;50.730;-1.932;2022-12-13T11:13:35;34;33;
49644;PMS5003;36494;50.730;-1.932;2022-12-13T11:16:00;39;34;
49644;PMS5003;36494;50.730;-1.932;2022-12-13T11:18:25;35;32;
49644;PMS5003;36494;50.730;-1.932;2022-12-13T11:20:53;34;32;
49644;PMS5003;36494;50.730;-1.932;2022-12-13T11:23:18;32;31;
49644;PMS5003;36494;50.730;-1.932;2022-12-13T11:25:42;30;28;
49644;PMS5003;36494;50.730;-1.932;2022-12-13T11:28:14;33;31;
49644;PMS5003;36494;50.730;-1.932;2022-12-13T11:30:35;30;29;
49644;PMS5003;36494;50.730;-1.932;2022-12-13T11:33:04;33;30;
49644;PMS5003;36494;50.730;-1.932;2022-12-13T11:35:26;37;34;
49644;PMS5003;36494;50.730;-1.932;2022-12-13T11:37:52;40;36;
49644;PMS5003;36494;50.730;-1.932;2022-12-13T11:40:16;35;33;
49644;PMS5003;36494;50.730;-1.932;2022-12-13T11:42:42;39;36;
49644;PMS5003;36494;50.730;-1.932;2022-12-13T11:45:09;45;40;
49644;PMS5003;36494;50.730;-1.932;2022-12-13T11:47:34;33;30;
49644;PMS5003;36494;50.730;-1.932;2022-12-13T11:49:58;38;36;
49644;PMS5003;36494;50.730;-1.932;2022-12-13T11:52:24;35;31;
49644;PMS5003;36494;50.730;-1.932;2022-12-13T11:54:51;37;34;
49644;PMS5003;36494;50.730;-1.932;2022-12-13T11:57:17;36;34;
49644;PMS5003;36494;50.730;-1.932;2022-12-13T11:59:41;42;39;
49644;PMS5003;36494;50.730;-1.932;2022-12-13T12:02:09;27;27;
49644;PMS5003;36494;50.730;-1.932;2022-12-13T12:04:33;35;33;
49644;PMS5003;36494;50.730;-1.932;2022-12-13T12:06:57;36;34;
49644;PMS5003;36494;50.730;-1.932;2022-12-13T12:09:22;34;33;
49644;PMS5003;36494;50.730;-1.932;2022-12-13T12:11:50;32;30;
49644;PMS5003;36494;50.730;-1.932;2022-12-13T12:14:13;41;36;
49644;PMS5003;36494;50.730;-1.932;2022-12-13T12:16:40;37;36;
49644;PMS5003;36494;50.730;-1.932;2022-12-13T12:19:07;40;38;
49644;PMS5003;36494;50.730;-1.932;2022-12-13T12:21:33;37;37;
49644;PMS5003;36494;50.730;-1.932;2022-12-13T12:23:57;38;33;
49644;PMS5003;36494;50.730;-1.932;2022-12-13T12:26:21;37;34;
49644;PMS5003;36494;50.730;-1.932;2022-12-13T12:28:51;37;33;
49644;PMS5003;36494;50.730;-1.932;2022-12-13T12:31:13;30;30;
49644;PMS5003;36494;50.730;-1.932;2022-12-13T12:33:37;34;34;
49644;PMS5003;36494;50.730;-1.932;2022-12-13T12:36:07;37;35;
49644;PMS5003;36494;50.730;-1.932;2022-12-13T12:38:29;33;31;
49644;PMS5003;36494;50.730;-1.932;2022-12-13T12:40:56;40;38;
49644;PMS5003;36494;50.730;-1.932;2022-12-13T12:43:19;39;37;
49644;PMS5003;36494;50.730;-1.932;2022-12-13T12:45:46;54;51;
49644;PMS5003;36494;50.730;-1.932;2022-12-13T12:48:12;42;41;
49644;PMS5003;36494;50.730;-1.932;2022-12-13T12:50:35;39;38;
49644;PMS5003;36494;50.730;-1.932;2022-12-13T12:53:07;42;41;
49644;PMS5003;36494;50.730;-1.932;2022-12-13T12:55:27;39;36;
49644;PMS5003;36494;50.730;-1.932;2022-12-13T12:57:52;38;37;
49644;PMS5003;36494;50.730;-1.932;2022-12-13T13:00:16;36;34;
49644;PMS5003;36494;50.730;-1.932;2022-12-13T13:02:42;35;34;
49644;PMS5003;36494;50.730;-1.932;2022-12-13T13:05:09;40;38;
49644;PMS5003;36494;50.730;-1.932;2022-12-13T13:07:33;38;36;
49644;PMS5003;36494;50.730;-1.932;2022-12-13T13:09:58;37;35;
49644;PMS5003;36494;50.730;-1.932;2022-12-13T13:12:23;39;38;
49644;PMS5003;36494;50.730;-1.932;2022-12-13T13:14:48;38;37;
49644;PMS5003;36494;50.730;-1.932;2022-12-13T13:19:43;43;37;
49644;PMS5003;36494;50.730;-1.932;2022-12-13T13:22:13;37;35;
49644;PMS5003;36494;50.730;-1.932;2022-12-13T13:24:30;30;29;
49644;PMS5003;36494;50.730;-1.932;2022-12-13T13:26:55;43;40;
49644;PMS5003;36494;50.730;-1.932;2022-12-13T13:29:24;36;34;
49644;PMS5003;36494;50.730;-1.932;2022-12-13T13:31:53;35;34;
49644;PMS5003;36494;50.730;-1.932;2022-12-13T13:36:45;42;39;
49644;PMS5003;36494;50.730;-1.932;2022-12-13T13:39:02;34;32;
49644;PMS5003;36494;50.730;-1.932;2022-12-13T13:43:53;38;36;
49644;PMS5003;36494;50.730;-1.932;2022-12-13T13:46:19;36;35;
49644;PMS5003;36494;50.730;-1.932;2022-12-13T13:48:47;38;34;
49644;PMS5003;36494;50.730;-1.932;2022-12-13T13:51:19;39;37;
49644;PMS5003;36494;50.730;-1.932;2022-12-13T13:53:44;37;36;
49644;PMS5003;36494;50.730;-1.932;2022-12-13T13:56:04;37;35;
49644;PMS5003;36494;50.730;-1.932;2022-12-13T14:00:58;35;35;
49644;PMS5003;36494;50.730;-1.932;2022-12-13T14:10:35;40;35;
49644;PMS5003;36494;50.730;-1.932;2022-12-13T14:20:19;35;34;
49644;PMS5003;36494;50.730;-1.932;2022-12-13T14:22:42;39;38;
49644;PMS5003;36494;50.730;-1.932;2022-12-13T14:25:14;45;43;
49644;PMS5003;36494;50.730;-1.932;2022-12-13T14:27:36;42;40;
49644;PMS5003;36494;50.730;-1.932;2022-12-13T14:29:57;40;38;
49644;PMS5003;36494;50.730;-1.932;2022-12-13T14:32:24;40;38;
49644;PMS5003;36494;50.730;-1.932;2022-12-13T14:34:48;46;42;
49644;PMS5003;36494;50.730;-1.932;2022-12-13T14:37:20;45;43;
49644;PMS5003;36494;50.730;-1.932;2022-12-13T14:39:42;37;37;
49644;PMS5003;36494;50.730;-1.932;2022-12-13T14:44:31;41;38;
49644;PMS5003;36494;50.730;-1.932;2022-12-13T14:46:57;45;42;
49644;PMS5003;36494;50.730;-1.932;2022-12-13T14:49:22;47;45;
49644;PMS5003;36494;50.730;-1.932;2022-12-13T14:51:48;39;38;
49644;PMS5003;36494;50.730;-1.932;2022-12-13T14:54:15;37;34;
49644;PMS5003;36494;50.730;-1.932;2022-12-13T15:01:30;47;44;
49644;PMS5003;36494;50.730;-1.932;2022-12-13T15:03:54;50;47;
49644;PMS5003;36494;50.730;-1.932;2022-12-13T15:06:20;58;55;
49644;PMS5003;36494;50.730;-1.932;2022-12-13T15:08:45;56;52;
49644;PMS5003;36494;50.730;-1.932;2022-12-13T15:11:10;51;48;
49644;PMS5003;36494;50.730;-1.932;2022-12-13T15:13:36;47;47;
49644;PMS5003;36494;50.730;-1.932;2022-12-13T15:16:02;51;50;
49644;PMS5003;36494;50.730;-1.932;2022-12-13T15:18:27;53;49;
49644;PMS5003;36494;50.730;-1.932;2022-12-13T15:20:52;56;54;
49644;PMS5003;36494;50.730;-1.932;2022-12-13T15:23:20;48;48;
49644;PMS5003;36494;50.730;-1.932;2022-12-13T15:25:43;48;45;
49644;PMS5003;36494;50.730;-1.932;2022-12-13T15:28:08;56;51;
49644;PMS5003;36494;50.730;-1.932;2022-12-13T15:30:33;56;53;
49644;PMS5003;36494;50.730;-1.932;2022-12-13T15:33:02;42;42;
49644;PMS5003;36494;50.730;-1.932;2022-12-13T15:35:25;46;45;
49644;PMS5003;36494;50.730;-1.932;2022-12-13T15:37:49;48;45;
49644;PMS5003;36494;50.730;-1.932;2022-12-13T15:40:21;51;49;
49644;PMS5003;36494;50.730;-1.932;2022-12-13T15:42:43;55;51;
49644;PMS5003;36494;50.730;-1.932;2022-12-13T15:47:32;47;45;
49644;PMS5003;36494;50.730;-1.932;2022-12-13T15:49:58;54;49;
49644;PMS5003;36494;50.730;-1.932;2022-12-13T15:52:25;55;51;
49644;PMS5003;36494;50.730;-1.932;2022-12-13T15:54:52;51;50;
49644;PMS5003;36494;50.730;-1.932;2022-12-13T15:57:13;46;46;
49644;PMS5003;36494;50.730;-1.932;2022-12-13T15:59:38;48;47;
49644;PMS5003;36494;50.730;-1.932;2022-12-13T16:02:08;50;46;
49644;PMS5003;36494;50.730;-1.932;2022-12-13T16:04:30;49;44;
49644;PMS5003;36494;50.730;-1.932;2022-12-13T16:06:55;49;48;
49644;PMS5003;36494;50.730;-1.932;2022-12-13T16:09:21;52;50;
49644;PMS5003;36494;50.730;-1.932;2022-12-13T16:11:47;69;67;
49644;PMS5003;36494;50.730;-1.932;2022-12-13T16:16:38;52;50;
49644;PMS5003;36494;50.730;-1.932;2022-12-13T16:19:11;46;45;
49644;PMS5003;36494;50.730;-1.932;2022-12-13T16:21:28;54;50;
49644;PMS5003;36494;50.730;-1.932;2022-12-13T16:23:53;52;49;
49644;PMS5003;36494;50.730;-1.932;2022-12-13T16:26:20;52;51;
49644;PMS5003;36494;50.730;-1.932;2022-12-13T16:28:45;48;46;
49644;PMS5003;36494;50.730;-1.932;2022-12-13T16:31:12;73;72;
49644;PMS5003;36494;50.730;-1.932;2022-12-13T16:33:36;89;80;
49644;PMS5003;36494;50.730;-1.932;2022-12-13T16:36:01;83;81;
49644;PMS5003;36494;50.730;-1.932;2022-12-13T16:38:26;89;85;